Pagrindinis puslapis
METAR-TAF:

METAR-TAF

Oro uostai :

Qaisumah, Saudo Arabija

platuma: 28-19N, ilguma: 046-07E, Aukštis: 358 m

Dabartinis oras

Ataskaita buvo paskelbta 35 minutes, ne 23:00 UTC
Vėjas 6 kt iš Šiaurės
Temperatūra 32°C
Drėgmė 21%
Slėgis 1009 hPa
Matomumas 10 km arba daugiau
nėra debesų žemiau 1500 m ir nėra kamuolinių lietaus debesų

METAR: OEPA 052300Z 36006KT CAVOK 32/07 Q1009 NOSIG

Laikas: 02:35 (23:35 UTC)

Prognozė

Ataskaita buvo paskelbta 12 valandos ir 35 minutes, ne 11:00 UTC
Prognozė galioja nuo 05 metu 12 UTC su 06 metu 18 UTC
Vėjas 18 kt iš Šiaurės/Šiaurės Rytų
Matomumas: 5000 m
Dulkes pustymas
Laikinai
nuo 05 metu 12 UTC su 05 metu 20 UTC
Matomumas: 3000 m
Tikimybė 30% :
Laikinai
nuo 05 metu 12 UTC su 05 metu 16 UTC
Matomumas: 1000 m
Tapsmas
nuo 05 metu 18 UTC su 05 metu 20 UTC
Vėjas 13 kt iš Šiaurės Rytų

TAF: OEPA 051100Z 0512/0618 02018KT 5000 BLDU NSC TEMPO 0512/0520 3000 PROB30 TEMPO 0512/0516 1000 BECMG 0518/0520 04013KT

Orai ataskaitas ir orų prognozės (METAR, TAF).

turimą stotys yra geltonos ir raudonos taškus žemėlapyje.

Perkelti pele per norėdami pamatyti stoties vardą.

Tada spustelėkite, norėdami matyti oro stebėjimo ir prognozės.

Norėdami pakeisti žemėlapį: spustelėkite ant žalios mygtukų su juodo kryžiaus žemyn,; žalią mygtuką su brūkšneliu, jei norite nutolinti; arba žalių rodyklių gretimoms žemėlapius.


METAR-TAF: